Time;durP1;ratioP1;P1;durP2;ratioP2;P2;SDS_P1;SDS_P2;PMS_P1;PMS_P2;Temp;Humidity;BMP_temperature;BMP_pressure;BME280_temperature;BME280_humidity;BME280_pressure;Samples;Min_cycle;Max_cycle;Signal;HPM_P1;HPM_P2
2022/12/31 00:01:15;;;;;;;3.97;1.80;;;13.60;99.90;;;;;;4983158;28;20022;-83
2022/12/31 00:03:41;;;;;;;4.65;2.10;;;13.60;99.90;;;;;;5009108;28;20024;-84
2022/12/31 00:06:28;;;;;;;2.25;1.65;;;13.60;99.90;;;;;;5016187;28;20106;-83
2022/12/31 00:08:56;;;;;;;2.90;1.50;;;13.60;99.90;;;;;;5023558;28;20010;-82
2022/12/31 00:11:23;;;;;;;2.65;1.50;;;13.60;99.90;;;;;;5017149;28;20033;-84
2022/12/31 00:13:50;;;;;;;2.85;1.10;;;13.60;99.90;;;;;;5019025;28;20054;-83
2022/12/31 00:16:22;;;;;;;3.05;1.40;;;13.60;99.90;;;;;;5022777;28;20030;-84
2022/12/31 00:18:51;;;;;;;1.17;0.82;;;13.60;99.90;;;;;;5022769;28;20033;-84
2022/12/31 00:21:18;;;;;;;1.33;0.70;;;13.60;99.90;;;;;;5002922;28;20497;-83
2022/12/31 00:23:44;;;;;;;1.40;0.70;;;13.60;99.90;;;;;;4999774;28;20018;-83
2022/12/31 00:26:15;;;;;;;2.20;0.70;;;13.60;99.90;;;;;;4968588;28;20494;-83
2022/12/31 00:28:41;;;;;;;1.33;1.00;;;13.60;99.90;;;;;;4979662;28;20034;-83
2022/12/31 00:31:13;;;;;;;2.00;1.15;;;13.60;99.90;;;;;;4979988;28;20465;-82
2022/12/31 00:33:38;;;;;;;;;;;13.70;99.90;;;;;;4980230;28;20450;-85
2022/12/31 00:36:19;;;;;;;1.13;1.02;;;13.60;99.90;;;;;;4980206;28;19910;-83
2022/12/31 00:38:46;;;;;;;6.22;1.27;;;13.60;99.90;;;;;;4979474;28;20084;-83
2022/12/31 00:41:13;;;;;;;2.22;1.52;;;13.70;99.90;;;;;;4979366;28;20453;-83
2022/12/31 00:43:39;;;;;;;1.15;0.93;;;13.70;99.90;;;;;;4996356;28;20097;-83
2022/12/31 00:46:05;;;;;;;2.15;1.20;;;13.70;99.90;;;;;;4979292;28;20181;-82
2022/12/31 00:48:32;;;;;;;15.93;1.60;;;13.70;99.90;;;;;;4963360;28;20530;-83
2022/12/31 00:50:58;;;;;;;6.30;1.33;;;13.80;99.90;;;;;;4982686;28;20027;-84
2022/12/31 00:53:25;;;;;;;3.70;1.10;;;13.70;99.90;;;;;;4964423;28;20046;-84
2022/12/31 00:55:51;;;;;;;2.22;1.15;;;13.60;99.90;;;;;;4962854;28;20061;-85
2022/12/31 00:58:16;;;;;;;1.08;0.98;;;13.60;99.90;;;;;;4975469;28;20030;-85
2022/12/31 01:00:42;;;;;;;3.03;1.75;;;13.50;99.90;;;;;;4955181;28;20031;-85
2022/12/31 01:03:11;;;;;;;3.38;1.48;;;13.30;99.90;;;;;;4962117;28;20126;-86
2022/12/31 01:05:37;;;;;;;3.67;1.80;;;13.30;99.90;;;;;;4962511;28;20088;-85
2022/12/31 01:08:03;;;;;;;2.72;1.88;;;13.30;99.90;;;;;;4946591;28;20030;-85
2022/12/31 01:13:12;;;;;;;3.42;1.92;;;13.20;99.90;;;;;;4996797;28;20029;-86
2022/12/31 01:15:39;;;;;;;3.60;2.00;;;13.20;99.90;;;;;;5018667;28;20035;-85
2022/12/31 01:18:06;;;;;;;2.28;1.70;;;13.20;99.90;;;;;;4998222;28;20030;-85
2022/12/31 01:20:41;;;;;;;3.40;1.90;;;13.10;99.90;;;;;;4963470;28;20399;-84
2022/12/31 01:23:08;;;;;;;2.10;1.50;;;13.10;99.90;;;;;;4978900;28;20026;-84
2022/12/31 01:25:35;;;;;;;5.45;2.13;;;13.10;99.90;;;;;;4978883;28;20030;-84
2022/12/31 01:28:01;;;;;;;3.05;1.65;;;13.10;99.90;;;;;;4998570;28;20575;-85
2022/12/31 01:30:28;;;;;;;7.20;2.13;;;13.10;99.90;;;;;;4978950;28;20121;-85
2022/12/31 01:32:54;;;;;;;3.85;1.83;;;13.10;99.90;;;;;;4978609;28;20466;-85
2022/12/31 01:35:19;;;;;;;4.43;1.90;;;13.10;99.90;;;;;;4946337;28;20041;-85
2022/12/31 01:37:45;;;;;;;3.80;1.67;;;13.10;99.90;;;;;;4978698;28;20026;-84
2022/12/31 01:40:11;;;;;;;2.88;1.25;;;13.10;99.90;;;;;;4946460;28;20068;-85
2022/12/31 01:42:37;;;;;;;4.53;1.70;;;13.10;99.90;;;;;;4978406;28;20058;-85
2022/12/31 01:45:08;;;;;;;5.43;1.80;;;13.10;99.90;;;;;;4978286;28;20026;-84
2022/12/31 01:47:40;;;;;;;3.72;1.80;;;13.10;99.90;;;;;;4977791;28;20529;-84
2022/12/31 01:50:15;;;;;;;4.03;1.70;;;13.10;99.90;;;;;;4978030;28;20030;-85
2022/12/31 01:52:46;;;;;;;3.53;1.52;;;13.10;99.90;;;;;;4978564;28;20022;-85
2022/12/31 01:55:30;;;;;;;2.65;1.48;;;13.10;99.90;;;;;;4962099;28;20030;-85
2022/12/31 01:58:01;;;;;;;4.05;1.70;;;13.10;99.90;;;;;;4977693;28;20470;-84
2022/12/31 02:00:27;;;;;;;3.63;1.73;;;13.10;99.90;;;;;;4975274;28;20037;-84
2022/12/31 02:02:53;;;;;;;2.85;1.60;;;13.10;99.90;;;;;;4959268;28;20030;-85
2022/12/31 02:05:27;;;;;;;3.03;1.85;;;13.10;99.90;;;;;;4962183;28;20034;-83
2022/12/31 02:07:53;;;;;;;4.40;2.20;;;13.10;99.90;;;;;;4978003;28;20034;-85
2022/12/31 02:10:19;;;;;;;4.65;2.08;;;13.10;99.90;;;;;;4977384;28;20023;-85
2022/12/31 02:12:46;;;;;;;5.80;2.50;;;13.10;99.90;;;;;;4961137;28;20434;-85
2022/12/31 02:15:11;;;;;;;4.80;2.30;;;13.10;99.90;;;;;;4961308;28;20058;-85
2022/12/31 02:18:09;;;;;;;3.80;2.08;;;13.10;99.90;;;;;;4946145;28;20023;-85
2022/12/31 02:21:03;;;;;;;9.48;2.30;;;13.10;99.90;;;;;;4978058;28;20105;-83
2022/12/31 02:24:09;;;;;;;6.68;2.13;;;13.00;99.90;;;;;;4977833;28;20023;-84
2022/12/31 02:26:52;;;;;;;5.45;2.35;;;13.00;99.90;;;;;;4976450;28;20046;-84
2022/12/31 02:29:30;;;;;;;5.13;1.90;;;13.00;99.90;;;;;;4977847;28;20026;-85
2022/12/31 02:32:09;;;;;;;6.43;2.10;;;13.00;99.90;;;;;;4994879;28;20034;-85
2022/12/31 02:34:41;;;;;;;4.10;2.20;;;12.90;99.90;;;;;;4977214;28;20022;-85
2022/12/31 02:37:11;;;;;;;5.50;2.10;;;12.90;99.90;;;;;;4977563;28;20018;-85
2022/12/31 02:39:37;;;;;;;5.72;2.08;;;12.90;99.90;;;;;;4977203;28;20102;-84
2022/12/31 02:42:03;;;;;;;2.67;1.77;;;12.90;99.90;;;;;;4945428;28;20022;-85
2022/12/31 02:44:32;;;;;;;3.47;1.63;;;12.90;99.90;;;;;;4977586;28;20033;-85
2022/12/31 02:47:07;;;;;;;5.07;1.80;;;12.90;99.90;;;;;;4977174;28;20027;-85
2022/12/31 02:49:40;;;;;;;5.15;1.67;;;12.90;99.90;;;;;;4974223;28;20485;-84
2022/12/31 02:52:33;;;;;;;6.78;2.25;;;12.90;99.90;;;;;;4994390;28;20105;-84
2022/12/31 02:55:08;;;;;;;5.85;2.33;;;12.90;99.90;;;;;;4995985;28;20046;-86
2022/12/31 02:57:47;;;;;;;6.50;2.90;;;12.90;99.90;;;;;;4974397;28;20038;-85
2022/12/31 03:03:01;;;;;;;6.78;2.90;;;12.90;99.90;;;;;;4993097;28;20092;-86
2022/12/31 03:05:31;;;;;;;4.82;2.13;;;12.80;99.90;;;;;;4945918;28;20096;-84
2022/12/31 03:07:56;;;;;;;5.43;2.63;;;12.80;99.90;;;;;;4977498;28;20044;-84
2022/12/31 03:10:22;;;;;;;4.82;2.10;;;12.80;99.90;;;;;;4961776;28;20109;-85
2022/12/31 03:12:48;;;;;;;3.55;2.03;;;12.80;99.90;;;;;;4968619;28;20026;-87
2022/12/31 03:15:24;;;;;;;4.07;1.98;;;12.80;99.90;;;;;;4979897;28;20486;-86
2022/12/31 03:18:02;;;;;;;2.53;1.65;;;12.70;99.90;;;;;;4975611;28;20027;-86
2022/12/31 03:23:39;;;;;;;3.42;1.80;;;12.70;99.90;;;;;;4997960;28;20053;-83
2022/12/31 03:26:10;;;;;;;4.07;1.80;;;12.70;99.90;;;;;;4981312;28;20034;-84
2022/12/31 03:28:41;;;;;;;4.72;2.20;;;12.60;99.90;;;;;;4981273;28;20022;-84
2022/12/31 03:31:07;;;;;;;7.30;2.50;;;12.70;99.90;;;;;;4981538;28;20542;-85
2022/12/31 03:33:38;;;;;;;4.78;2.15;;;12.60;99.90;;;;;;4981850;28;20018;-84
2022/12/31 03:36:04;;;;;;;;;;;12.60;99.90;;;;;;4982042;28;20114;-85
2022/12/31 03:38:30;;;;;;;5.25;2.10;;;12.60;99.90;;;;;;4981280;28;19905;-85
2022/12/31 03:40:56;;;;;;;5.90;2.92;;;12.60;99.90;;;;;;4965767;28;20112;-85
2022/12/31 03:43:21;;;;;;;5.32;2.42;;;12.60;99.90;;;;;;4973018;28;20065;-85
2022/12/31 03:45:50;;;;;;;6.05;2.80;;;12.60;99.90;;;;;;4988613;28;20033;-84
2022/12/31 03:48:16;;;;;;;7.05;3.25;;;12.60;99.90;;;;;;5004481;28;20018;-85
2022/12/31 03:50:41;;;;;;;8.68;3.65;;;12.60;99.90;;;;;;4988648;28;20022;-83
2022/12/31 03:53:07;;;;;;;9.55;4.18;;;12.60;99.90;;;;;;5004533;28;20018;-88
2022/12/31 03:55:33;;;;;;;9.27;5.10;;;12.60;99.90;;;;;;4980672;28;20058;-84
2022/12/31 03:57:58;;;;;;;9.25;4.78;;;12.60;99.90;;;;;;4983104;28;20042;-84
2022/12/31 04:00:24;;;;;;;11.98;5.50;;;12.60;99.90;;;;;;4987993;28;20243;-85
2022/12/31 04:02:50;;;;;;;15.98;6.80;;;12.60;99.90;;;;;;5010600;28;20027;-84
2022/12/31 04:05:17;;;;;;;11.30;5.60;;;12.60;99.90;;;;;;4965274;28;20125;-84
2022/12/31 04:07:43;;;;;;;13.95;6.43;;;12.60;99.90;;;;;;4980495;28;20031;-84
2022/12/31 04:10:10;;;;;;;15.10;7.28;;;12.60;99.90;;;;;;4980355;28;20085;-85
2022/12/31 04:12:36;;;;;;;11.40;6.43;;;12.60;99.90;;;;;;4964659;28;20027;-84
2022/12/31 04:15:03;;;;;;;12.57;6.57;;;12.60;99.90;;;;;;4980201;28;20052;-84
2022/12/31 04:17:28;;;;;;;12.70;6.72;;;12.60;99.90;;;;;;4961112;28;20447;-84
2022/12/31 04:19:54;;;;;;;10.10;6.07;;;12.60;99.90;;;;;;4962244;28;20035;-84
2022/12/31 04:22:20;;;;;;;9.27;5.53;;;12.60;99.90;;;;;;4979997;28;20080;-84
2022/12/31 04:24:45;;;;;;;11.75;5.88;;;12.60;99.90;;;;;;4963933;28;20061;-84
2022/12/31 04:27:12;;;;;;;11.73;6.15;;;12.50;99.90;;;;;;4952845;28;20067;-85
2022/12/31 04:29:38;;;;;;;9.65;4.93;;;12.50;99.90;;;;;;4975501;28;20041;-84
2022/12/31 04:32:05;;;;;;;11.35;5.60;;;12.60;99.90;;;;;;4978968;28;20031;-85
2022/12/31 04:34:30;;;;;;;10.77;5.47;;;12.60;99.90;;;;;;4962203;28;20066;-85
2022/12/31 04:36:56;;;;;;;11.45;5.80;;;12.60;99.90;;;;;;4979838;28;20034;-84
2022/12/31 04:39:23;;;;;;;14.43;5.80;;;12.60;99.90;;;;;;4980360;28;20030;-85
2022/12/31 04:41:49;;;;;;;10.90;5.60;;;12.60;99.90;;;;;;4979701;28;20030;-84
2022/12/31 04:44:14;;;;;;;10.05;5.10;;;12.60;99.90;;;;;;4947106;28;20080;-85
2022/12/31 04:46:40;;;;;;;9.07;4.88;;;12.60;99.90;;;;;;4963356;28;20531;-84
2022/12/31 04:49:06;;;;;;;8.38;4.80;;;12.60;99.90;;;;;;4979113;28;20498;-84
2022/12/31 04:51:32;;;;;;;6.32;3.70;;;12.60;99.90;;;;;;4963201;28;20050;-84
2022/12/31 04:53:58;;;;;;;6.60;3.65;;;12.60;99.90;;;;;;4963408;28;20132;-84
2022/12/31 04:56:24;;;;;;;7.13;4.18;;;12.60;99.90;;;;;;4978600;28;20060;-84
2022/12/31 04:58:50;;;;;;;5.78;3.38;;;12.60;99.90;;;;;;4979275;28;20088;-84
2022/12/31 05:01:16;;;;;;;4.50;2.97;;;12.60;99.90;;;;;;4979508;28;20113;-84
2022/12/31 05:03:42;;;;;;;5.55;3.33;;;12.60;99.90;;;;;;4959618;28;20042;-84
2022/12/31 05:06:11;;;;;;;7.13;3.50;;;12.60;99.90;;;;;;4962341;28;20414;-84
2022/12/31 05:08:37;;;;;;;5.80;3.40;;;12.60;99.90;;;;;;4978824;28;20026;-84
2022/12/31 05:11:03;;;;;;;4.60;2.78;;;12.60;99.90;;;;;;4978680;28;20471;-84
2022/12/31 05:13:29;;;;;;;4.55;2.67;;;12.60;99.90;;;;;;4978115;28;20124;-84
2022/12/31 05:15:55;;;;;;;3.63;2.50;;;12.60;99.90;;;;;;4946521;28;20030;-84
2022/12/31 05:18:21;;;;;;;3.08;2.05;;;12.60;99.90;;;;;;4975231;28;20029;-84
2022/12/31 05:20:47;;;;;;;4.05;2.30;;;12.60;99.90;;;;;;4959725;28;20035;-84
2022/12/31 05:23:14;;;;;;;2.72;1.80;;;12.60;99.90;;;;;;4979056;28;20026;-84
2022/12/31 05:25:41;;;;;;;3.28;1.65;;;12.60;99.90;;;;;;4978576;28;20045;-84
2022/12/31 05:28:07;;;;;;;2.72;1.58;;;12.60;99.90;;;;;;4978511;28;20030;-84
2022/12/31 05:30:33;;;;;;;2.67;1.40;;;12.70;99.90;;;;;;4978116;28;20030;-84
2022/12/31 05:32:59;;;;;;;2.30;1.40;;;12.70;99.90;;;;;;4979715;28;20493;-84
2022/12/31 05:35:25;;;;;;;1.52;0.95;;;12.70;99.90;;;;;;4974220;28;20034;-84
2022/12/31 05:37:51;;;;;;;1.23;1.02;;;12.70;99.90;;;;;;4978206;28;20031;-84
2022/12/31 05:40:17;;;;;;;2.08;1.10;;;12.70;99.90;;;;;;4945860;28;20034;-88
2022/12/31 05:42:42;;;;;;;2.22;1.20;;;12.70;99.90;;;;;;4995317;28;20022;-84
2022/12/31 05:45:12;;;;;;;1.75;0.90;;;12.70;99.90;;;;;;4995049;28;20518;-83
2022/12/31 05:47:40;;;;;;;1.08;0.88;;;12.80;99.90;;;;;;4962345;28;20042;-83
2022/12/31 05:50:08;;;;;;;1.67;1.10;;;12.80;99.90;;;;;;4977918;28;20030;-84
2022/12/31 05:52:33;;;;;;;0.93;0.75;;;12.80;99.90;;;;;;4977604;28;20031;-83
2022/12/31 05:54:59;;;;;;;2.35;0.65;;;12.80;99.90;;;;;;4961690;28;20038;-84
2022/12/31 05:57:25;;;;;;;2.03;1.00;;;12.80;99.90;;;;;;4945305;28;20034;-84
2022/12/31 05:59:52;;;;;;;1.88;1.08;;;12.80;99.90;;;;;;4977977;28;20023;-84
2022/12/31 06:02:21;;;;;;;1.15;0.90;;;12.80;99.90;;;;;;4962188;28;20034;-84
2022/12/31 06:04:46;;;;;;;1.58;0.93;;;12.80;99.90;;;;;;4978174;28;20026;-83
2022/12/31 06:07:12;;;;;;;1.45;1.00;;;12.90;99.90;;;;;;4994022;28;20427;-84
2022/12/31 06:09:38;;;;;;;2.88;1.00;;;12.80;99.90;;;;;;4977808;28;20054;-84
2022/12/31 06:12:04;;;;;;;1.67;0.90;;;12.80;99.90;;;;;;4961932;28;20090;-84
2022/12/31 06:14:30;;;;;;;2.58;0.98;;;12.80;99.90;;;;;;4980157;28;20058;-84
2022/12/31 06:16:55;;;;;;;1.20;1.00;;;12.80;99.90;;;;;;4986210;28;20053;-84
2022/12/31 06:19:21;;;;;;;1.60;1.20;;;12.90;99.90;;;;;;4971796;28;20036;-86
2022/12/31 06:21:47;;;;;;;2.47;1.35;;;12.80;99.90;;;;;;4979294;28;20058;-83
2022/12/31 06:24:12;;;;;;;3.47;1.20;;;12.80;99.90;;;;;;4961488;28;20455;-84
2022/12/31 06:26:38;;;;;;;1.23;0.95;;;12.90;99.90;;;;;;4977138;28;20380;-84
2022/12/31 06:29:04;;;;;;;1.02;0.90;;;12.90;99.90;;;;;;4945151;28;20034;-84
2022/12/31 06:31:29;;;;;;;1.20;1.10;;;12.90;99.90;;;;;;4976982;28;20041;-84
2022/12/31 06:33:55;;;;;;;1.48;1.20;;;13.00;99.90;;;;;;4961212;28;20035;-84
2022/12/31 06:36:21;;;;;;;1.95;1.00;;;13.00;99.90;;;;;;4945249;28;20054;-84
2022/12/31 06:38:47;;;;;;;2.05;1.20;;;13.10;99.90;;;;;;4977143;28;20122;-84
2022/12/31 06:41:15;;;;;;;2.40;1.10;;;13.10;99.90;;;;;;4977824;28;20054;-84
2022/12/31 06:43:41;;;;;;;2.38;1.52;;;13.10;99.90;;;;;;4977025;28;20080;-84
2022/12/31 06:46:11;;;;;;;2.17;1.25;;;13.20;99.90;;;;;;4977187;28;20031;-84
2022/12/31 06:48:38;;;;;;;1.70;1.10;;;13.20;99.90;;;;;;4994751;28;20034;-84
2022/12/31 06:51:08;;;;;;;2.03;1.10;;;13.30;99.90;;;;;;4945245;28;20034;-84
2022/12/31 06:53:34;;;;;;;2.45;1.10;;;13.30;99.90;;;;;;4994129;28;20025;-84
2022/12/31 06:56:09;;;;;;;2.97;1.77;;;13.40;99.90;;;;;;4945024;28;20034;-84
2022/12/31 06:58:35;;;;;;;2.08;1.40;;;13.50;99.90;;;;;;4980021;28;20109;-84
2022/12/31 07:01:07;;;;;;;2.17;1.30;;;13.50;99.90;;;;;;4981313;28;20031;-83
2022/12/31 07:03:51;;;;;;;2.72;1.60;;;13.50;99.90;;;;;;4977571;28;20418;-84
2022/12/31 07:06:37;;;;;;;2.85;1.65;;;13.60;99.90;;;;;;4974079;28;20034;-84
2022/12/31 07:09:14;;;;;;;2.60;1.55;;;13.70;99.90;;;;;;4998829;28;20165;-84
2022/12/31 07:11:42;;;;;;;4.10;1.83;;;13.70;99.90;;;;;;4977664;28;20027;-84
2022/12/31 07:14:24;;;;;;;2.38;1.60;;;13.70;99.90;;;;;;4980311;28;20054;-84
2022/12/31 07:17:02;;;;;;;2.28;1.73;;;13.70;99.90;;;;;;4980922;28;20054;-84
2022/12/31 07:20:06;;;;;;;5.38;2.00;;;13.80;99.90;;;;;;4998187;28;20126;-86
2022/12/31 07:22:32;;;;;;;2.55;1.80;;;13.80;99.90;;;;;;4992562;28;20053;-84
2022/12/31 07:24:57;;;;;;;4.07;2.20;;;13.80;99.90;;;;;;4949010;28;20026;-84
2022/12/31 07:27:50;;;;;;;4.07;2.30;;;13.80;99.90;;;;;;4980577;28;20463;-84
2022/12/31 07:30:23;;;;;;;5.35;2.45;;;13.80;99.90;;;;;;4978804;28;20027;-84
2022/12/31 07:33:01;;;;;;;5.32;2.30;;;13.80;99.90;;;;;;4994771;28;20027;-82
2022/12/31 07:35:56;;;;;;;6.13;2.80;;;13.80;99.90;;;;;;4997553;28;20031;-83
2022/12/31 07:38:46;;;;;;;6.15;2.85;;;13.80;99.90;;;;;;4947930;28;20131;-83
2022/12/31 07:41:37;;;;;;;8.95;3.15;;;13.90;99.90;;;;;;4997647;28;20027;-83
2022/12/31 07:44:07;;;;;;;6.47;2.60;;;13.90;99.90;;;;;;5015030;28;20375;-84
2022/12/31 07:46:52;;;;;;;6.75;2.25;;;13.90;99.90;;;;;;4981639;28;20386;-84
2022/12/31 07:49:18;;;;;;;4.90;2.53;;;13.90;99.90;;;;;;4978244;28;20042;-84
2022/12/31 07:51:44;;;;;;;4.90;2.47;;;13.90;99.90;;;;;;4957857;28;20031;-85
2022/12/31 07:54:09;;;;;;;6.32;2.05;;;13.90;99.90;;;;;;4980713;28;20026;-85
2022/12/31 07:56:35;;;;;;;4.68;2.40;;;14.00;99.90;;;;;;4980537;28;20035;-85
2022/12/31 07:59:04;;;;;;;4.70;1.83;;;14.00;99.90;;;;;;4964371;28;20018;-85
2022/12/31 08:01:41;;;;;;;7.05;2.78;;;14.10;99.90;;;;;;4998189;28;20062;-84
2022/12/31 08:04:42;;;;;;;7.68;2.50;;;14.10;99.90;;;;;;4980063;28;20026;-85
2022/12/31 08:07:08;;;;;;;;;;;14.10;99.90;;;;;;4958246;28;20048;-85
2022/12/31 08:09:58;;;;;;;2.75;1.50;;;14.10;99.90;;;;;;4976915;28;19910;-87
2022/12/31 08:12:26;;;;;;;3.47;1.70;;;14.10;99.90;;;;;;4977342;28;20019;-85
2022/12/31 08:14:52;;;;;;;5.65;1.85;;;14.10;99.90;;;;;;4958866;28;20117;-84
2022/12/31 08:17:18;;;;;;;15.35;2.40;;;14.10;99.90;;;;;;4980297;28;20485;-84
2022/12/31 08:19:45;;;;;;;6.72;1.83;;;14.10;99.90;;;;;;4979777;28;20034;-84
2022/12/31 08:22:25;;;;;;;6.38;1.40;;;14.10;99.90;;;;;;4947568;28;20110;-83
2022/12/31 08:25:12;;;;;;;4.82;1.00;;;14.10;99.90;;;;;;4976629;28;20058;-83
2022/12/31 08:27:57;;;;;;;3.03;1.08;;;14.00;99.90;;;;;;4980332;28;20053;-84
2022/12/31 08:30:35;;;;;;;5.00;1.30;;;13.90;99.90;;;;;;4976716;28;20027;-84
2022/12/31 08:33:22;;;;;;;3.35;0.85;;;13.80;99.90;;;;;;4996047;28;20033;-83
2022/12/31 08:36:18;;;;;;;3.70;0.90;;;13.70;99.90;;;;;;4979109;28;20053;-82
2022/12/31 08:38:58;;;;;;;2.65;0.65;;;13.70;99.90;;;;;;4976087;28;20022;-83
2022/12/31 08:41:46;;;;;;;1.17;0.55;;;13.60;99.90;;;;;;4973435;28;20031;-83
2022/12/31 08:44:30;;;;;;;2.03;0.90;;;13.60;99.90;;;;;;4991227;28;20023;-83
2022/12/31 08:47:01;;;;;;;5.18;0.80;;;13.60;99.90;;;;;;4983131;28;20039;-83
2022/12/31 08:49:30;;;;;;;1.63;0.70;;;13.60;99.90;;;;;;4998623;28;20011;-82
2022/12/31 08:51:57;;;;;;;3.22;1.02;;;13.60;99.90;;;;;;4980273;28;20081;-83
2022/12/31 08:54:23;;;;;;;2.17;0.70;;;13.60;99.90;;;;;;4979218;28;20054;-83
2022/12/31 08:57:26;;;;;;;4.05;1.02;;;13.60;99.90;;;;;;4963330;28;20030;-83
2022/12/31 09:00:11;;;;;;;6.15;1.50;;;13.60;99.90;;;;;;4976633;28;20027;-83
2022/12/31 09:02:49;;;;;;;4.22;1.25;;;13.60;99.90;;;;;;4996288;28;20022;-83
2022/12/31 09:05:34;;;;;;;3.10;0.90;;;13.60;99.90;;;;;;4996690;28;20124;-84
2022/12/31 09:08:22;;;;;;;4.65;1.08;;;13.60;99.90;;;;;;4977847;28;20023;-84
2022/12/31 09:10:56;;;;;;;3.45;1.02;;;13.60;99.90;;;;;;4975659;28;20399;-83
2022/12/31 09:13:58;;;;;;;5.45;1.10;;;13.60;99.90;;;;;;4975130;28;20031;-83
2022/12/31 09:16:30;;;;;;;3.58;1.10;;;13.70;99.90;;;;;;4972275;28;20054;-82
2022/12/31 09:18:56;;;;;;;1.83;1.00;;;13.60;99.90;;;;;;4995616;28;20061;-82
2022/12/31 09:21:22;;;;;;;4.60;1.25;;;13.60;99.90;;;;;;4977536;28;20463;-83
2022/12/31 09:23:47;;;;;;;2.75;1.27;;;13.70;99.90;;;;;;4962109;28;20034;-84
2022/12/31 09:26:34;;;;;;;4.50;1.30;;;13.70;99.90;;;;;;4978146;28;20027;-83
2022/12/31 09:29:23;;;;;;;4.25;1.30;;;13.70;99.90;;;;;;4976759;28;20031;-82
2022/12/31 09:32:05;;;;;;;2.90;1.30;;;13.70;99.90;;;;;;4977412;28;20030;-83
2022/12/31 09:34:52;;;;;;;3.65;1.40;;;13.70;99.90;;;;;;4975017;28;20375;-83
2022/12/31 09:37:41;;;;;;;5.40;1.63;;;13.80;99.90;;;;;;4971270;28;20053;-84
2022/12/31 09:40:29;;;;;;;3.80;1.80;;;13.80;99.90;;;;;;4989130;28;20081;-88
2022/12/31 09:43:13;;;;;;;3.05;1.60;;;13.80;99.90;;;;;;4978412;28;20025;-84
2022/12/31 09:46:22;;;;;;;6.50;1.60;;;13.90;99.90;;;;;;4974392;28;20423;-83
2022/12/31 09:49:16;;;;;;;4.22;1.75;;;13.90;99.90;;;;;;4974734;28;20035;-83
2022/12/31 09:52:20;;;;;;;6.93;1.67;;;13.90;99.90;;;;;;4993995;28;20065;-83
2022/12/31 09:55:29;;;;;;;4.10;1.70;;;14.00;99.90;;;;;;4974100;28;20360;-82
2022/12/31 09:58:27;;;;;;;6.60;2.00;;;14.10;99.90;;;;;;4975597;28;20022;-83
2022/12/31 10:01:06;;;;;;;7.35;1.70;;;14.20;99.90;;;;;;4977209;28;20030;-83
2022/12/31 10:03:40;;;;;;;6.55;1.60;;;14.30;99.90;;;;;;4974338;28;20027;-82
2022/12/31 10:06:27;;;;;;;5.18;1.40;;;14.30;99.90;;;;;;4976228;28;20475;-83
2022/12/31 10:09:08;;;;;;;9.75;1.90;;;14.40;99.90;;;;;;4975069;28;20434;-82
2022/12/31 10:12:04;;;;;;;5.35;1.55;;;14.40;99.90;;;;;;4974028;28;20468;-82
2022/12/31 10:14:48;;;;;;;8.10;2.05;;;14.50;99.90;;;;;;4989323;28;20019;-83
2022/12/31 10:17:32;;;;;;;4.70;1.45;;;14.50;99.90;;;;;;4974183;28;20043;-83
2022/12/31 10:20:20;;;;;;;3.25;1.30;;;14.50;99.90;;;;;;4973495;28;20023;-82
2022/12/31 10:23:26;;;;;;;4.45;1.42;;;14.50;99.90;;;;;;4943445;28;20034;-81
2022/12/31 10:26:12;;;;;;;6.35;1.23;;;14.50;99.90;;;;;;4994334;28;20062;-82
2022/12/31 10:28:55;;;;;;;6.90;1.48;;;14.60;99.90;;;;;;4973996;28;20435;-82
2022/12/31 10:31:39;;;;;;;3.70;1.65;;;14.60;99.90;;;;;;4969789;28;20035;-82
2022/12/31 10:34:16;;;;;;;5.75;1.63;;;14.70;99.90;;;;;;4976111;28;20026;-82
2022/12/31 10:37:02;;;;;;;5.13;1.70;;;14.60;99.90;;;;;;4976795;28;20029;-81
2022/12/31 10:39:36;;;;;;;4.75;1.38;;;14.70;99.90;;;;;;4976912;28;20018;-81
2022/12/31 10:42:24;;;;;;;4.32;1.42;;;14.70;99.90;;;;;;4975581;28;20383;-82
2022/12/31 10:45:23;;;;;;;9.10;1.80;;;14.70;99.90;;;;;;4993969;28;20562;-81
2022/12/31 10:48:10;;;;;;;4.60;1.60;;;14.70;99.90;;;;;;4994076;28;20077;-81
2022/12/31 10:50:57;;;;;;;4.20;1.55;;;14.70;99.90;;;;;;4973415;28;20098;-80
2022/12/31 10:53:50;;;;;;;5.38;1.90;;;14.70;99.90;;;;;;4970556;28;20026;-80
2022/12/31 10:56:53;;;;;;;14.50;9.98;;;14.80;99.90;;;;;;4972982;28;20027;-81
2022/12/31 10:59:33;;;;;;;6.25;2.30;;;14.80;99.90;;;;;;4987315;28;20110;-83
2022/12/31 11:02:36;;;;;;;7.93;1.90;;;14.80;99.90;;;;;;4975552;28;20026;-82
2022/12/31 11:05:26;;;;;;;6.20;1.83;;;14.80;99.90;;;;;;4975754;28;20027;-81
2022/12/31 11:09:05;;;;;;;7.97;2.17;;;14.80;99.90;;;;;;4974531;28;20027;-82
2022/12/31 11:11:36;;;;;;;7.60;2.13;;;14.90;99.90;;;;;;4881325;29;20637;-81
2022/12/31 11:14:19;;;;;;;6.78;2.08;;;14.90;99.90;;;;;;4929697;29;20074;-82
2022/12/31 11:17:13;;;;;;;6.25;2.30;;;14.80;99.90;;;;;;4988215;28;20041;-81
2022/12/31 11:20:01;;;;;;;5.25;1.40;;;14.80;99.90;;;;;;4993176;28;20030;-81
2022/12/31 11:22:52;;;;;;;8.20;2.28;;;14.90;99.90;;;;;;4983892;28;20068;-82
2022/12/31 11:25:40;;;;;;;9.15;2.00;;;14.90;99.90;;;;;;4988092;28;20030;-82
2022/12/31 11:28:33;;;;;;;6.38;2.00;;;14.90;99.90;;;;;;5009746;28;20081;-87
2022/12/31 11:31:21;;;;;;;8.57;2.42;;;14.90;99.90;;;;;;4979387;28;20022;-84
2022/12/31 11:33:56;;;;;;;10.15;2.65;;;14.90;99.90;;;;;;4977487;28;20401;-82
2022/12/31 11:36:30;;;;;;;10.10;1.90;;;14.90;99.90;;;;;;4976339;28;20034;-82
2022/12/31 11:39:22;;;;;;;6.30;1.98;;;14.90;99.90;;;;;;4976706;28;20060;-81
2022/12/31 11:41:55;;;;;;;10.85;2.50;;;14.90;99.90;;;;;;4977066;28;20026;-83
2022/12/31 11:44:27;;;;;;;9.32;1.85;;;14.90;99.90;;;;;;4983509;28;20030;-83
2022/12/31 11:47:15;;;;;;;7.35;2.20;;;14.90;99.90;;;;;;4994831;28;20037;-83
2022/12/31 11:50:03;;;;;;;9.07;1.73;;;14.90;99.90;;;;;;4997379;28;20034;-84
2022/12/31 11:53:02;;;;;;;6.85;2.00;;;15.00;99.90;;;;;;4978916;28;20383;-82
2022/12/31 11:55:55;;;;;;;6.53;1.80;;;15.00;99.90;;;;;;4957693;28;20038;-83
2022/12/31 11:58:27;;;;;;;10.35;1.75;;;15.10;99.90;;;;;;5014779;28;20129;-83
2022/12/31 12:01:04;;;;;;;6.45;2.10;;;15.10;99.90;;;;;;4999202;28;20022;-82
2022/12/31 12:03:31;;;;;;;6.90;1.52;;;15.10;99.90;;;;;;4998592;28;20390;-81
2022/12/31 12:05:57;;;;;;;5.68;1.70;;;15.10;99.90;;;;;;4998899;28;20129;-82
2022/12/31 12:08:26;;;;;;;7.07;1.55;;;15.20;99.90;;;;;;4998828;28;20037;-81
2022/12/31 12:11:23;;;;;;;7.47;1.90;;;15.20;99.90;;;;;;4998585;28;20022;-83
2022/12/31 12:13:48;;;;;;;6.38;1.75;;;15.20;99.90;;;;;;4993968;28;20038;-82
2022/12/31 12:16:15;;;;;;;7.13;1.10;;;15.20;99.90;;;;;;4982347;28;20053;-82
2022/12/31 12:18:49;;;;;;;8.43;1.45;;;15.20;99.90;;;;;;4998527;28;20026;-81
2022/12/31 12:21:19;;;;;;;5.57;1.42;;;15.30;99.90;;;;;;4998301;28;20029;-83
2022/12/31 12:24:23;;;;;;;5.00;1.20;;;15.20;99.90;;;;;;4999587;28;20022;-84
2022/12/31 12:26:49;;;;;;;6.18;1.88;;;15.30;99.90;;;;;;4976262;28;20052;-81
2022/12/31 12:29:31;;;;;;;6.75;1.95;;;15.30;99.90;;;;;;4997861;28;20018;-82
2022/12/31 12:32:04;;;;;;;8.30;1.60;;;15.30;99.90;;;;;;5009531;28;20040;-83
2022/12/31 12:34:31;;;;;;;7.18;1.67;;;15.30;99.90;;;;;;5013120;28;20026;-84
2022/12/31 12:36:59;;;;;;;4.05;1.30;;;15.20;99.90;;;;;;4997240;28;20495;-82
2022/12/31 12:39:33;;;;;;;5.78;1.80;;;15.20;99.90;;;;;;4982468;28;20033;-82
2022/12/31 12:42:10;;;;;;;8.05;2.00;;;15.20;99.90;;;;;;4997653;28;20118;-81
2022/12/31 12:44:36;;;;;;;11.88;2.47;;;15.20;99.90;;;;;;4997920;28;20026;-83
2022/12/31 12:47:04;;;;;;;6.55;1.70;;;15.20;99.90;;;;;;4982016;28;20041;-81
2022/12/31 12:49:53;;;;;;;9.02;1.80;;;15.20;99.90;;;;;;5015297;28;20382;-81
2022/12/31 12:52:18;;;;;;;5.07;1.95;;;15.10;99.90;;;;;;4997904;28;20025;-82
2022/12/31 12:54:44;;;;;;;8.40;2.00;;;15.20;99.90;;;;;;4997100;28;20022;-83
2022/12/31 12:57:33;;;;;;;8.80;1.95;;;15.20;99.90;;;;;;5015846;28;20113;-85
2022/12/31 13:00:19;;;;;;;8.95;2.10;;;15.20;99.90;;;;;;4998477;28;20505;-84
2022/12/31 13:03:14;;;;;;;8.50;2.50;;;15.20;99.90;;;;;;4998507;28;20028;-83
2022/12/31 13:05:58;;;;;;;10.45;2.25;;;15.20;99.90;;;;;;4998136;28;20037;-82
2022/12/31 13:08:53;;;;;;;6.82;1.75;;;15.10;99.90;;;;;;5015334;28;20025;-82
2022/12/31 13:11:42;;;;;;;6.60;1.70;;;15.20;99.90;;;;;;4995413;28;20034;-81
2022/12/31 13:14:29;;;;;;;9.40;2.67;;;15.20;99.90;;;;;;5015715;28;20026;-82
2022/12/31 13:17:06;;;;;;;5.38;1.83;;;15.20;99.90;;;;;;4997140;28;20133;-83
2022/12/31 13:19:55;;;;;;;8.88;1.80;;;15.20;99.90;;;;;;4997650;28;20461;-82
2022/12/31 13:22:31;;;;;;;4.97;1.73;;;15.20;99.90;;;;;;4997483;28;20478;-82
2022/12/31 13:25:03;;;;;;;9.90;2.53;;;15.20;99.90;;;;;;4997508;28;20390;-81
2022/12/31 13:27:43;;;;;;;8.02;1.73;;;15.20;99.90;;;;;;4997207;28;20088;-82
2022/12/31 13:30:27;;;;;;;6.00;1.85;;;15.20;99.90;;;;;;4997653;28;20045;-82
2022/12/31 13:33:17;;;;;;;6.03;1.85;;;15.20;99.90;;;;;;4997679;28;20026;-83